createdAt,value
2023-04-13T00:01:11.056Z,7.30
2023-04-13T00:03:40.568Z,7.20
2023-04-13T00:06:10.836Z,7.20
2023-04-13T00:08:42.688Z,7.10
2023-04-13T00:11:10.922Z,7.10
2023-04-13T00:13:41.199Z,7.10
2023-04-13T00:16:11.081Z,7.00
2023-04-13T00:18:40.885Z,7.00
2023-04-13T00:21:09.393Z,7.00
2023-04-13T00:23:37.252Z,6.90
2023-04-13T00:26:05.534Z,6.80
2023-04-13T00:28:33.737Z,6.80
2023-04-13T00:31:01.879Z,6.80
2023-04-13T00:33:29.743Z,6.70
2023-04-13T00:36:01.021Z,6.70
2023-04-13T00:38:29.757Z,6.60
2023-04-13T00:40:57.576Z,6.60
2023-04-13T00:43:26.147Z,6.50
2023-04-13T00:45:54.147Z,6.50
2023-04-13T00:48:23.369Z,6.50
2023-04-13T00:50:51.235Z,6.50
2023-04-13T00:53:20.986Z,6.40
2023-04-13T00:55:48.971Z,6.40
2023-04-13T00:58:17.455Z,6.40
2023-04-13T01:00:45.369Z,6.40
2023-04-13T01:03:13.556Z,6.30
2023-04-13T01:05:50.301Z,6.30
2023-04-13T01:08:30.874Z,6.30
2023-04-13T01:11:04.245Z,6.30
2023-04-13T01:13:38.542Z,6.20
2023-04-13T01:16:16.897Z,6.10
2023-04-13T01:18:49.861Z,6.10
2023-04-13T01:21:21.696Z,6.10
2023-04-13T01:24:01.272Z,6.10
2023-04-13T01:26:37.645Z,6.10
2023-04-13T01:29:07.458Z,6.00
2023-04-13T01:31:36.109Z,6.00
2023-04-13T01:34:04.850Z,5.90
2023-04-13T01:36:34.100Z,5.90
2023-04-13T01:39:02.412Z,5.90
2023-04-13T01:41:32.485Z,5.90
2023-04-13T01:44:00.559Z,5.90
2023-04-13T01:46:35.023Z,5.80
2023-04-13T01:49:11.940Z,5.80
2023-04-13T01:51:51.263Z,5.80
2023-04-13T01:54:27.225Z,5.80
2023-04-13T01:57:00.023Z,5.70
2023-04-13T01:59:28.094Z,5.70
2023-04-13T02:01:58.563Z,5.70
2023-04-13T02:04:26.593Z,5.60
2023-04-13T02:06:54.655Z,5.60
2023-04-13T02:09:29.148Z,5.50
2023-04-13T02:11:57.004Z,5.50
2023-04-13T02:14:25.088Z,5.50
2023-04-13T02:16:54.717Z,5.50
2023-04-13T02:19:24.641Z,5.40
2023-04-13T02:21:53.201Z,5.40
2023-04-13T02:24:21.643Z,5.40
2023-04-13T02:26:49.599Z,5.40
2023-04-13T02:29:17.477Z,5.40
2023-04-13T02:31:46.452Z,5.40
2023-04-13T02:34:14.686Z,5.40
2023-04-13T02:36:45.203Z,5.30
2023-04-13T02:39:13.360Z,5.30
2023-04-13T02:41:42.756Z,5.30
2023-04-13T02:44:13.493Z,5.30
2023-04-13T02:46:51.287Z,5.30
2023-04-13T02:49:19.664Z,5.30
2023-04-13T02:52:13.063Z,5.30
2023-04-13T02:54:55.188Z,5.30
2023-04-13T02:57:27.463Z,5.30
2023-04-13T02:59:57.605Z,5.30
2023-04-13T03:02:29.943Z,5.30
2023-04-13T03:04:59.359Z,5.30
2023-04-13T03:07:32.884Z,5.30
2023-04-13T03:10:02.403Z,5.30
2023-04-13T03:12:31.163Z,5.20
2023-04-13T03:15:02.879Z,5.20
2023-04-13T03:17:32.068Z,5.20
2023-04-13T03:20:00.646Z,5.20
2023-04-13T03:22:30.538Z,5.20
2023-04-13T03:25:04.691Z,5.20
2023-04-13T03:27:37.879Z,5.10
2023-04-13T03:30:07.380Z,5.10
2023-04-13T03:32:42.927Z,5.10
2023-04-13T03:35:11.297Z,5.10
2023-04-13T03:37:42.747Z,5.10
2023-04-13T03:40:33.849Z,5.10
2023-04-13T03:43:02.121Z,5.00
2023-04-13T03:45:33.644Z,5.10
2023-04-13T03:48:05.873Z,5.10
2023-04-13T03:50:33.879Z,5.00
2023-04-13T03:53:02.309Z,5.00
2023-04-13T03:55:30.492Z,5.10
2023-04-13T03:58:05.946Z,5.10
2023-04-13T04:00:36.142Z,5.10
2023-04-13T04:03:18.180Z,5.10
2023-04-13T04:05:53.636Z,5.10
2023-04-13T04:08:22.111Z,5.10
2023-04-13T04:10:53.010Z,5.10
2023-04-13T04:13:23.560Z,5.10
2023-04-13T04:15:54.871Z,5.10
2023-04-13T04:18:22.997Z,5.10
2023-04-13T04:20:50.923Z,5.00
2023-04-13T04:23:19.941Z,5.10
2023-04-13T04:25:59.320Z,5.10
2023-04-13T04:28:38.389Z,5.00
2023-04-13T04:31:10.660Z,5.10
2023-04-13T04:33:40.177Z,5.10
2023-04-13T04:36:13.902Z,5.10
2023-04-13T04:38:57.874Z,5.00
2023-04-13T04:41:26.918Z,5.00
2023-04-13T04:44:03.250Z,5.00
2023-04-13T04:46:38.661Z,5.00
2023-04-13T04:49:11.242Z,5.10
2023-04-13T04:51:40.279Z,5.00
2023-04-13T04:54:08.169Z,5.10
2023-04-13T04:56:36.296Z,5.10
2023-04-13T04:59:05.588Z,5.10
2023-04-13T05:01:44.121Z,5.10
2023-04-13T05:04:14.335Z,5.10
2023-04-13T05:06:44.671Z,5.20
2023-04-13T05:09:17.545Z,5.30
2023-04-13T05:11:49.224Z,5.30
2023-04-13T05:14:21.004Z,5.40
2023-04-13T05:16:49.670Z,5.30
2023-04-13T05:19:25.052Z,5.30
2023-04-13T05:22:07.793Z,5.30
2023-04-13T05:24:42.184Z,5.30
2023-04-13T05:27:13.510Z,5.40
2023-04-13T05:29:45.579Z,5.50
2023-04-13T05:32:17.425Z,5.50
2023-04-13T05:34:47.361Z,5.60
2023-04-13T05:37:21.450Z,5.60
2023-04-13T05:39:49.997Z,5.80
2023-04-13T05:42:21.283Z,5.80
2023-04-13T05:44:50.568Z,6.00
2023-04-13T05:47:22.822Z,6.00
2023-04-13T05:49:54.753Z,6.10
2023-04-13T05:52:23.975Z,6.20
2023-04-13T05:54:53.768Z,6.30
2023-04-13T05:57:22.582Z,6.40
2023-04-13T05:59:54.291Z,6.50
2023-04-13T06:02:27.056Z,6.70
2023-04-13T06:04:56.396Z,6.80
2023-04-13T06:07:25.939Z,7.00
2023-04-13T06:09:53.835Z,7.10
2023-04-13T06:12:23.925Z,7.30
2023-04-13T06:14:55.002Z,7.40
2023-04-13T06:17:22.910Z,7.50
2023-04-13T06:19:51.626Z,7.60
2023-04-13T06:22:19.483Z,7.70
2023-04-13T06:24:47.339Z,7.80
2023-04-13T06:27:15.591Z,7.80
2023-04-13T06:29:46.824Z,7.90
2023-04-13T06:32:16.733Z,8.10
2023-04-13T06:34:45.704Z,8.20
2023-04-13T06:37:14.107Z,8.30
2023-04-13T06:39:47.400Z,8.50
2023-04-13T06:42:16.212Z,8.60
2023-04-13T06:45:01.592Z,8.80
2023-04-13T06:47:40.607Z,8.90
2023-04-13T06:50:13.804Z,8.90
2023-04-13T06:52:44.269Z,9.10
2023-04-13T06:55:12.467Z,9.10
2023-04-13T06:57:42.317Z,9.20
2023-04-13T07:00:28.328Z,9.30
2023-04-13T07:02:59.794Z,9.20
2023-04-13T07:05:28.152Z,9.10
2023-04-13T07:08:01.247Z,9.10
2023-04-13T07:10:29.903Z,9.30
2023-04-13T07:13:02.974Z,9.30
2023-04-13T07:15:32.813Z,9.40
2023-04-13T07:18:03.022Z,9.40
2023-04-13T07:20:31.051Z,9.40
2023-04-13T07:22:59.027Z,9.40
2023-04-13T07:25:27.067Z,9.40
2023-04-13T07:27:55.256Z,9.40
2023-04-13T07:30:24.469Z,9.50
2023-04-13T07:32:52.549Z,9.60
2023-04-13T07:35:23.042Z,9.80
2023-04-13T07:37:53.283Z,9.90
2023-04-13T07:40:23.018Z,10.10
2023-04-13T07:42:55.715Z,10.30
2023-04-13T07:45:23.750Z,10.50
2023-04-13T07:47:53.394Z,10.70
2023-04-13T07:50:23.031Z,10.70
2023-04-13T07:52:52.904Z,10.60
2023-04-13T07:55:23.819Z,10.40
2023-04-13T07:57:53.054Z,10.60
2023-04-13T08:00:22.812Z,10.80
2023-04-13T08:02:55.994Z,11.00
2023-04-13T08:05:27.319Z,11.00
2023-04-13T08:07:55.707Z,11.00
2023-04-13T08:10:23.913Z,11.00
2023-04-13T08:12:55.961Z,11.00
2023-04-13T08:15:24.842Z,11.10
2023-04-13T08:17:53.786Z,11.10
2023-04-13T08:20:22.864Z,11.20
2023-04-13T08:22:54.093Z,11.10
2023-04-13T08:25:22.409Z,10.90
2023-04-13T08:27:50.469Z,10.90
2023-04-13T08:30:19.824Z,10.90
2023-04-13T08:32:54.566Z,10.90
2023-04-13T08:35:24.261Z,10.80
2023-04-13T08:37:55.064Z,10.80
2023-04-13T08:40:23.309Z,10.80
2023-04-13T08:42:56.097Z,10.90
2023-04-13T08:45:24.730Z,11.00
2023-04-13T08:47:52.592Z,11.00
2023-04-13T08:50:26.043Z,10.70
2023-04-13T08:52:57.001Z,10.70
2023-04-13T08:55:27.301Z,10.70
2023-04-13T08:58:01.008Z,10.50
2023-04-13T09:00:31.103Z,10.50
2023-04-13T09:03:06.638Z,10.50
2023-04-13T09:05:42.863Z,10.40
2023-04-13T09:08:14.274Z,10.40
2023-04-13T09:10:46.011Z,10.40
2023-04-13T09:13:13.926Z,10.50
2023-04-13T09:15:42.712Z,10.50
2023-04-13T09:18:20.998Z,10.50
2023-04-13T09:20:58.498Z,10.70
2023-04-13T09:23:27.916Z,10.90
2023-04-13T09:26:07.591Z,11.00
2023-04-13T09:28:45.946Z,10.90
2023-04-13T09:31:15.508Z,10.80
2023-04-13T09:33:47.614Z,10.80
2023-04-13T09:36:17.349Z,10.70
2023-04-13T09:38:52.085Z,10.60
2023-04-13T09:41:31.770Z,10.80
2023-04-13T09:44:00.198Z,10.90
2023-04-13T09:46:29.560Z,11.10
2023-04-13T09:49:03.061Z,11.20
2023-04-13T09:51:38.328Z,11.20
2023-04-13T09:54:07.933Z,11.20
2023-04-13T09:56:44.935Z,11.20
2023-04-13T09:59:13.770Z,11.20
2023-04-13T10:01:42.269Z,11.00
2023-04-13T10:04:10.818Z,11.00
2023-04-13T10:06:40.250Z,11.30
2023-04-13T10:09:09.530Z,11.80
2023-04-13T10:11:40.697Z,12.00
2023-04-13T10:14:13.884Z,11.90
2023-04-13T10:17:05.850Z,11.90
2023-04-13T10:19:37.185Z,11.90
2023-04-13T10:22:08.916Z,11.70
2023-04-13T10:24:40.736Z,11.90
2023-04-13T10:27:12.516Z,12.30
2023-04-13T10:29:40.492Z,12.70
2023-04-13T10:32:08.548Z,12.90
2023-04-13T10:34:38.228Z,13.00
2023-04-13T10:37:16.807Z,13.20
2023-04-13T10:39:47.045Z,13.40
2023-04-13T10:42:17.691Z,13.50
2023-04-13T10:44:47.037Z,13.70
2023-04-13T10:47:16.485Z,13.60
2023-04-13T10:49:45.987Z,13.40
2023-04-13T10:52:16.148Z,13.00
2023-04-13T10:54:46.230Z,12.90
2023-04-13T10:57:16.579Z,12.80
2023-04-13T10:59:58.054Z,13.00
2023-04-13T11:02:32.444Z,12.90
2023-04-13T11:05:01.876Z,12.90
2023-04-13T11:07:29.848Z,12.90
2023-04-13T11:12:30.389Z,12.90
2023-04-13T11:14:58.243Z,13.30
2023-04-13T11:17:26.193Z,13.70
2023-04-13T11:19:55.797Z,13.70
2023-04-13T11:22:27.565Z,13.50
2023-04-13T11:25:09.049Z,13.70
2023-04-13T11:27:37.909Z,14.00
2023-04-13T11:30:07.526Z,14.10
2023-04-13T11:32:36.488Z,14.00
2023-04-13T11:35:09.120Z,14.00
2023-04-13T11:37:37.881Z,13.90
2023-04-13T11:40:16.674Z,13.90
2023-04-13T11:42:47.034Z,13.90
2023-04-13T11:45:16.140Z,13.70
2023-04-13T11:47:44.353Z,13.40
2023-04-13T11:50:15.642Z,13.30
2023-04-13T11:52:45.140Z,13.30
2023-04-13T11:55:23.201Z,13.40
2023-04-13T11:57:53.167Z,13.40
2023-04-13T12:00:25.837Z,13.40
2023-04-13T12:05:30.080Z,13.80
2023-04-13T12:07:59.266Z,13.90
2023-04-13T12:10:39.065Z,13.80
2023-04-13T12:15:58.140Z,14.10
2023-04-13T12:18:39.988Z,13.90
2023-04-13T12:21:08.429Z,13.70
2023-04-13T12:23:36.901Z,13.70
2023-04-13T12:28:38.801Z,14.10
2023-04-13T12:31:07.981Z,14.20
2023-04-13T12:33:35.903Z,13.90
2023-04-13T12:36:06.273Z,14.00
2023-04-13T12:38:34.484Z,13.90
2023-04-13T12:41:03.552Z,13.70
2023-04-13T12:43:32.790Z,13.70
2023-04-13T12:46:00.731Z,13.80
2023-04-13T12:48:29.432Z,13.70
2023-04-13T12:50:57.332Z,13.80
2023-04-13T12:53:25.159Z,14.20
2023-04-13T12:55:53.100Z,14.40
2023-04-13T12:58:20.946Z,14.30
2023-04-13T13:00:50.409Z,14.20
2023-04-13T13:03:18.389Z,14.00
2023-04-13T13:05:46.274Z,14.10
2023-04-13T13:08:14.149Z,14.20
2023-04-13T13:10:42.840Z,14.20
2023-04-13T13:13:11.205Z,14.10
2023-04-13T13:15:39.107Z,14.00
2023-04-13T13:18:10.588Z,14.00
2023-04-13T13:20:41.140Z,14.00
2023-04-13T13:23:10.918Z,14.00
2023-04-13T13:25:41.316Z,14.00
2023-04-13T13:28:15.436Z,13.80
2023-04-13T13:30:43.846Z,13.80
2023-04-13T13:33:13.080Z,13.80
2023-04-13T13:35:41.024Z,13.80
2023-04-13T13:38:08.941Z,13.80
2023-04-13T13:40:36.736Z,13.90
2023-04-13T13:43:05.218Z,13.90
2023-04-13T13:45:33.060Z,13.80
2023-04-13T13:48:03.047Z,13.70
2023-04-13T13:50:43.073Z,13.60
2023-04-13T13:53:11.593Z,13.50
2023-04-13T13:55:42.572Z,13.30
2023-04-13T13:58:10.716Z,13.20
2023-04-13T14:00:39.702Z,13.20
2023-04-13T14:03:07.941Z,13.20
2023-04-13T14:05:37.248Z,13.40
2023-04-13T14:08:07.001Z,13.50
2023-04-13T14:10:36.269Z,13.60
2023-04-13T14:13:04.210Z,13.90
2023-04-13T14:15:32.149Z,14.10
2023-04-13T14:18:09.064Z,14.30
2023-04-13T14:20:40.158Z,14.10
2023-04-13T14:23:10.043Z,13.90
2023-04-13T14:25:40.938Z,13.80
2023-04-13T14:28:09.308Z,13.70
2023-04-13T14:30:37.556Z,13.40
2023-04-13T14:33:06.739Z,13.40
2023-04-13T14:35:35.378Z,13.50
2023-04-13T14:38:03.277Z,13.30
2023-04-13T14:40:32.672Z,13.20
2023-04-13T14:43:00.736Z,13.10
2023-04-13T14:45:28.742Z,13.00
2023-04-13T14:47:56.606Z,13.00
2023-04-13T14:50:24.823Z,12.90
2023-04-13T14:52:53.148Z,12.90
2023-04-13T14:55:21.505Z,12.80
2023-04-13T14:57:51.039Z,12.70
2023-04-13T15:00:21.684Z,12.60
2023-04-13T15:02:51.105Z,12.50
2023-04-13T15:05:19.715Z,12.10
2023-04-13T15:07:48.397Z,11.50
2023-04-13T15:10:17.585Z,11.10
2023-04-13T15:12:45.461Z,10.90
2023-04-13T15:15:14.750Z,10.90
2023-04-13T15:17:42.557Z,11.00
2023-04-13T15:20:11.908Z,11.30
2023-04-13T15:22:39.787Z,11.60
2023-04-13T15:25:08.412Z,11.90
2023-04-13T15:27:36.430Z,12.20
2023-04-13T15:30:04.684Z,12.60
2023-04-13T15:32:36.054Z,12.70
2023-04-13T15:35:04.265Z,12.70
2023-04-13T15:37:32.129Z,12.60
2023-04-13T15:40:00.737Z,12.50
2023-04-13T15:42:28.702Z,12.40
2023-04-13T15:44:56.623Z,12.40
2023-04-13T15:47:24.578Z,12.30
2023-04-13T15:49:53.853Z,12.20
2023-04-13T15:52:22.761Z,12.30
2023-04-13T15:54:50.784Z,12.30
2023-04-13T15:57:18.684Z,12.30
2023-04-13T15:59:46.676Z,12.50
2023-04-13T16:02:14.658Z,12.60
2023-04-13T16:04:42.794Z,12.70
2023-04-13T16:07:14.576Z,12.80
2023-04-13T16:09:44.790Z,12.80
2023-04-13T16:12:13.062Z,12.90
2023-04-13T16:14:42.066Z,12.90
2023-04-13T16:17:10.417Z,12.90
2023-04-13T16:19:39.536Z,13.00
2023-04-13T16:22:10.379Z,13.00
2023-04-13T16:24:40.984Z,13.00
2023-04-13T16:27:10.066Z,12.90
2023-04-13T16:29:37.930Z,12.70
2023-04-13T16:32:06.193Z,12.50
2023-04-13T16:34:33.992Z,12.50
2023-04-13T16:37:02.000Z,12.50
2023-04-13T16:39:29.873Z,12.40
2023-04-13T16:41:59.055Z,12.30
2023-04-13T16:44:26.838Z,12.20
2023-04-13T16:46:56.442Z,12.20
2023-04-13T16:49:24.256Z,12.10
2023-04-13T16:51:52.191Z,12.10
2023-04-13T16:54:21.071Z,12.00
2023-04-13T16:56:48.980Z,12.00
2023-04-13T16:59:18.112Z,12.00
2023-04-13T17:01:46.455Z,11.90
2023-04-13T17:04:14.353Z,11.90
2023-04-13T17:06:43.776Z,12.00
2023-04-13T17:09:11.563Z,11.90
2023-04-13T17:11:39.438Z,11.90
2023-04-13T17:14:07.233Z,11.80
2023-04-13T17:16:36.444Z,11.80
2023-04-13T17:19:04.301Z,11.70
2023-04-13T17:21:32.139Z,11.70
2023-04-13T17:23:59.899Z,11.60
2023-04-13T17:26:27.757Z,11.60
2023-04-13T17:28:55.910Z,11.60
2023-04-13T17:31:24.709Z,11.60
2023-04-13T17:33:53.936Z,11.50
2023-04-13T17:36:22.588Z,11.40
2023-04-13T17:38:50.467Z,11.10
2023-04-13T17:41:18.585Z,10.90
2023-04-13T17:43:46.382Z,10.80
2023-04-13T17:46:14.307Z,10.50
2023-04-13T17:48:42.200Z,10.40
2023-04-13T17:51:11.844Z,10.30
2023-04-13T17:53:39.799Z,10.20
2023-04-13T17:56:09.101Z,10.10
2023-04-13T17:58:37.093Z,10.10
2023-04-13T18:01:08.900Z,10.10
2023-04-13T18:03:37.326Z,10.10
2023-04-13T18:06:06.462Z,10.10
2023-04-13T18:08:35.843Z,10.20
2023-04-13T18:11:03.949Z,10.20
2023-04-13T18:13:32.258Z,10.30
2023-04-13T18:16:00.196Z,10.30
2023-04-13T18:18:28.103Z,10.30
2023-04-13T18:20:56.085Z,10.30
2023-04-13T18:23:24.178Z,10.40
2023-04-13T18:25:53.663Z,10.30
2023-04-13T18:28:21.515Z,10.20
2023-04-13T18:30:49.383Z,10.20
2023-04-13T18:33:17.311Z,10.20
2023-04-13T18:35:46.189Z,10.20
2023-04-13T18:38:14.148Z,10.10
2023-04-13T18:40:43.261Z,9.80
2023-04-13T18:43:12.588Z,9.70
2023-04-13T18:45:40.582Z,9.60
2023-04-13T18:48:09.652Z,9.60
2023-04-13T18:50:38.651Z,9.60
2023-04-13T18:53:06.672Z,9.60
2023-04-13T18:55:35.122Z,9.50
2023-04-13T18:58:02.983Z,9.50
2023-04-13T19:00:32.505Z,9.40
2023-04-13T19:03:01.048Z,9.40
2023-04-13T19:05:29.165Z,9.30
2023-04-13T19:07:59.094Z,9.20
2023-04-13T19:10:27.890Z,9.10
2023-04-13T19:12:56.494Z,9.00
2023-04-13T19:15:24.632Z,9.00
2023-04-13T19:17:54.141Z,8.80
2023-04-13T19:20:23.646Z,8.70
2023-04-13T19:22:52.474Z,8.70
2023-04-13T19:25:20.652Z,8.60
2023-04-13T19:27:49.966Z,8.50
2023-04-13T19:30:19.010Z,8.40
2023-04-13T19:32:48.838Z,8.40
2023-04-13T19:35:18.485Z,8.40
2023-04-13T19:37:46.470Z,8.40
2023-04-13T19:40:15.410Z,8.30
2023-04-13T19:42:44.850Z,8.30
2023-04-13T19:45:13.694Z,8.20
2023-04-13T19:47:42.158Z,8.20
2023-04-13T19:50:12.213Z,8.10
2023-04-13T19:52:42.574Z,8.10
2023-04-13T19:55:11.938Z,8.00
2023-04-13T19:57:42.759Z,7.90
2023-04-13T20:00:19.859Z,7.80
2023-04-13T20:02:49.529Z,7.70
2023-04-13T20:05:18.627Z,7.50
2023-04-13T20:07:47.969Z,7.50
2023-04-13T20:10:15.903Z,7.50
2023-04-13T20:12:43.702Z,7.50
2023-04-13T20:15:11.945Z,7.50
2023-04-13T20:17:39.820Z,7.40
2023-04-13T20:20:10.613Z,7.40
2023-04-13T20:22:39.226Z,7.40
2023-04-13T20:25:10.000Z,7.40
2023-04-13T20:27:41.792Z,7.40
2023-04-13T20:30:10.822Z,7.40
2023-04-13T20:32:38.779Z,7.30
2023-04-13T20:35:07.971Z,7.30
2023-04-13T20:37:35.805Z,7.30
2023-04-13T20:40:06.713Z,7.20
2023-04-13T20:42:35.988Z,7.10
2023-04-13T20:45:04.557Z,7.00
2023-04-13T20:47:32.498Z,6.90
2023-04-13T20:50:00.729Z,6.90
2023-04-13T20:52:29.824Z,6.80
2023-04-13T20:54:58.204Z,6.90
2023-04-13T20:57:26.280Z,6.90
2023-04-13T20:59:55.624Z,6.80
2023-04-13T21:02:23.647Z,6.90
2023-04-13T21:04:53.816Z,6.90
2023-04-13T21:07:22.201Z,6.90
2023-04-13T21:09:50.073Z,6.90
2023-04-13T21:12:17.935Z,7.00
2023-04-13T21:14:45.806Z,7.00
2023-04-13T21:17:15.141Z,7.00
2023-04-13T21:19:43.053Z,7.00
2023-04-13T21:22:10.945Z,6.90
2023-04-13T21:24:38.961Z,6.90
2023-04-13T21:27:06.767Z,6.90
2023-04-13T21:29:34.748Z,6.90
2023-04-13T21:32:03.177Z,6.90
2023-04-13T21:34:32.397Z,6.90
2023-04-13T21:37:02.409Z,6.90
2023-04-13T21:39:31.155Z,6.80
2023-04-13T21:41:58.960Z,6.70
2023-04-13T21:44:29.807Z,6.70
2023-04-13T21:46:58.628Z,6.70
2023-04-13T21:49:27.058Z,6.60
2023-04-13T21:51:56.306Z,6.50
2023-04-13T21:54:24.160Z,6.40
2023-04-13T21:56:52.045Z,6.40
2023-04-13T21:59:19.818Z,6.40
2023-04-13T22:01:47.850Z,6.40
2023-04-13T22:04:15.850Z,6.40
2023-04-13T22:06:43.814Z,6.40
2023-04-13T22:09:13.284Z,6.40
2023-04-13T22:11:41.353Z,6.40
2023-04-13T22:14:09.449Z,6.40
2023-04-13T22:16:37.341Z,6.30
2023-04-13T22:19:05.172Z,6.30
2023-04-13T22:21:35.729Z,6.20
2023-04-13T22:24:03.809Z,6.10
2023-04-13T22:26:32.938Z,6.00
2023-04-13T22:29:01.004Z,6.00
2023-04-13T22:31:29.093Z,6.00
2023-04-13T22:33:57.366Z,6.00
2023-04-13T22:36:25.355Z,6.00
2023-04-13T22:38:54.671Z,6.00
2023-04-13T22:41:22.498Z,5.90
2023-04-13T22:43:51.657Z,5.90
2023-04-13T22:46:19.498Z,5.80
2023-04-13T22:48:48.201Z,5.80
2023-04-13T22:51:16.217Z,5.70
2023-04-13T22:53:44.101Z,5.70
2023-04-13T22:56:12.376Z,5.70
2023-04-13T22:58:40.248Z,5.60
2023-04-13T23:01:09.401Z,5.60
2023-04-13T23:03:37.521Z,5.60
2023-04-13T23:06:06.013Z,5.50
2023-04-13T23:08:34.028Z,5.50
2023-04-13T23:11:08.754Z,5.50
2023-04-13T23:13:36.724Z,5.50
2023-04-13T23:16:05.832Z,5.40
2023-04-13T23:18:35.171Z,5.40
2023-04-13T23:21:10.559Z,5.40
2023-04-13T23:23:39.641Z,5.40
2023-04-13T23:26:07.569Z,5.40
2023-04-13T23:28:35.524Z,5.40
2023-04-13T23:31:04.512Z,5.40
2023-04-13T23:33:32.460Z,5.50
2023-04-13T23:36:02.266Z,5.40
2023-04-13T23:38:30.689Z,5.40
2023-04-13T23:40:58.798Z,5.30
2023-04-13T23:43:26.968Z,5.20
2023-04-13T23:45:55.146Z,5.20
2023-04-13T23:48:24.490Z,5.20
2023-04-13T23:50:52.510Z,5.10
2023-04-13T23:53:21.836Z,5.10
2023-04-13T23:55:49.639Z,5.10
2023-04-13T23:58:17.552Z,5.10
